Terminal Aerodrome Forecast
Issued by NWS

Home | Current Version | Previous Version | Text Only | Print | Product List | Glossary On
Versions: 1 2 3 4 5 6 7 8 9 10 11 12 13 14 15 16 17 18
467
FTUS43 KICT 280520
TAFRSL
TAF
KRSL 280520Z 2806/2906 17017KT P6SM SCT080 OVC300 WS020/19045KT
     FM280700 17009KT P6SM VCTS SCT080CB OVC150
      TEMPO 2807/2809 VRB25G35KT 5SM TSRA BKN070CB
     FM280900 18017KT P6SM SCT150
     FM281400 19022G30KT P6SM SKC
     FM281800 21017KT P6SM BKN050=

USA.gov is the U.S. government's official web portal to all federal, state and local government web resources and services.